createdAt,value
2023-03-10T00:01:32.857Z,22.02
2023-03-10T00:04:02.791Z,20.65
2023-03-10T00:06:36.166Z,22.98
2023-03-10T00:09:04.140Z,23.80
2023-03-10T00:11:31.282Z,23.42
2023-03-10T00:13:58.017Z,21.80
2023-03-10T00:16:29.967Z,23.20
2023-03-10T00:18:59.686Z,23.65
2023-03-10T00:21:32.384Z,21.45
2023-03-10T00:24:02.616Z,25.67
2023-03-10T00:26:30.099Z,27.23
2023-03-10T00:28:57.565Z,25.73
2023-03-10T00:31:31.632Z,25.90
2023-03-10T00:34:00.974Z,23.85
2023-03-10T00:36:33.476Z,23.92
2023-03-10T00:39:02.121Z,23.15
2023-03-10T00:41:36.391Z,23.63
2023-03-10T00:46:38.704Z,19.02
2023-03-10T00:49:17.158Z,21.73
2023-03-10T00:51:43.926Z,19.90
2023-03-10T00:54:16.744Z,21.75
2023-03-10T00:56:43.493Z,19.38
2023-03-10T00:59:19.035Z,20.27
2023-03-10T01:01:48.843Z,21.90
2023-03-10T01:04:20.724Z,21.45
2023-03-10T01:06:47.721Z,23.70
2023-03-10T01:09:20.920Z,22.85
2023-03-10T01:11:47.674Z,24.15
2023-03-10T01:14:18.188Z,22.83
2023-03-10T01:16:45.563Z,23.02
2023-03-10T01:19:18.450Z,23.55
2023-03-10T01:21:45.342Z,23.98
2023-03-10T01:24:16.352Z,25.27
2023-03-10T01:26:43.184Z,21.80
2023-03-10T01:29:10.161Z,21.88
2023-03-10T01:31:37.053Z,21.38
2023-03-10T01:34:03.885Z,21.75
2023-03-10T01:36:33.149Z,22.65
2023-03-10T01:39:00.428Z,20.98
2023-03-10T01:41:30.270Z,21.35
2023-03-10T01:43:59.796Z,20.02
2023-03-10T01:46:38.446Z,20.73
2023-03-10T01:49:22.204Z,21.58
2023-03-10T01:52:05.465Z,20.30
2023-03-10T01:54:53.263Z,22.40
2023-03-10T01:57:30.069Z,21.30
2023-03-10T02:00:00.154Z,20.42
2023-03-10T02:02:27.853Z,24.08
2023-03-10T02:04:59.271Z,24.52
2023-03-10T02:07:30.744Z,23.63
2023-03-10T02:09:58.738Z,24.10
2023-03-10T02:12:25.750Z,24.17
2023-03-10T02:14:54.423Z,26.80
2023-03-10T02:17:25.522Z,27.48
2023-03-10T02:20:21.123Z,25.92
2023-03-10T02:22:49.933Z,25.35
2023-03-10T02:26:16.885Z,24.70
2023-03-10T02:28:51.745Z,27.23
2023-03-10T02:31:22.211Z,26.15
2023-03-10T02:33:52.374Z,25.23
2023-03-10T02:36:24.026Z,27.15
2023-03-10T02:38:51.240Z,28.88
2023-03-10T02:41:44.237Z,28.83
2023-03-10T02:44:20.916Z,28.92
2023-03-10T02:46:48.229Z,29.63
2023-03-10T02:49:19.467Z,28.02
2023-03-10T02:51:47.972Z,27.92
2023-03-10T02:54:18.112Z,28.70
2023-03-10T02:56:48.034Z,28.10
2023-03-10T02:59:17.961Z,28.13
2023-03-10T03:01:44.804Z,29.73
2023-03-10T03:04:11.538Z,28.80
2023-03-10T03:06:42.365Z,28.20
2023-03-10T03:09:09.256Z,25.70
2023-03-10T03:11:41.934Z,27.70
2023-03-10T03:14:08.765Z,27.23
2023-03-10T03:16:35.471Z,27.58
2023-03-10T03:19:02.216Z,26.90
2023-03-10T03:21:32.287Z,24.67
2023-03-10T03:23:59.068Z,27.10
2023-03-10T03:26:27.352Z,27.98
2023-03-10T03:28:54.256Z,27.23
2023-03-10T03:31:25.681Z,24.23
2023-03-10T03:33:52.571Z,25.42
2023-03-10T03:36:22.586Z,25.52
2023-03-10T03:38:49.342Z,23.88
2023-03-10T03:41:19.605Z,24.40
2023-03-10T03:43:46.462Z,22.55
2023-03-10T03:46:13.382Z,24.50
2023-03-10T03:48:46.145Z,22.23
2023-03-10T03:51:15.592Z,22.85
2023-03-10T03:53:48.027Z,24.65
2023-03-10T03:56:20.218Z,21.02
2023-03-10T03:58:46.864Z,23.17
2023-03-10T04:01:14.086Z,22.15
2023-03-10T04:03:46.516Z,23.45
2023-03-10T04:06:13.340Z,22.52
2023-03-10T04:08:41.507Z,20.63
2023-03-10T04:11:08.541Z,21.52
2023-03-10T04:13:35.834Z,20.50
2023-03-10T04:16:07.085Z,20.77
2023-03-10T04:18:33.955Z,21.13
2023-03-10T04:21:01.459Z,20.25
2023-03-10T04:23:28.304Z,20.85
2023-03-10T04:25:57.464Z,20.50
2023-03-10T04:28:24.395Z,20.63
2023-03-10T04:30:51.581Z,19.33
2023-03-10T04:33:24.454Z,19.75
2023-03-10T04:35:51.506Z,21.27
2023-03-10T04:38:25.000Z,19.30
2023-03-10T04:40:58.435Z,26.70
2023-03-10T04:43:25.790Z,19.47
2023-03-10T04:45:52.542Z,20.33
2023-03-10T04:48:23.776Z,21.23
2023-03-10T04:51:01.220Z,20.80
2023-03-10T04:53:34.569Z,22.05
2023-03-10T04:56:05.129Z,19.33
2023-03-10T04:58:35.532Z,19.75
2023-03-10T05:01:03.721Z,19.92
2023-03-10T05:03:30.524Z,18.13
2023-03-10T05:05:57.456Z,18.50
2023-03-10T05:08:25.567Z,18.85
2023-03-10T05:10:52.361Z,18.52
2023-03-10T05:13:30.121Z,16.30
2023-03-10T05:15:58.266Z,18.83
2023-03-10T05:18:25.028Z,17.58
2023-03-10T05:20:58.638Z,17.45
2023-03-10T05:23:25.736Z,19.40
2023-03-10T05:25:52.460Z,18.27
2023-03-10T05:28:21.752Z,18.67
2023-03-10T05:30:48.639Z,17.55
2023-03-10T05:33:15.617Z,17.52
2023-03-10T05:35:48.275Z,19.33
2023-03-10T05:38:24.462Z,18.75
2023-03-10T05:40:51.243Z,18.45
2023-03-10T05:43:24.338Z,16.00
2023-03-10T05:46:04.460Z,17.55
2023-03-10T05:48:31.700Z,18.08
2023-03-10T05:51:13.778Z,18.95
2023-03-10T05:53:43.825Z,19.08
2023-03-10T05:56:16.817Z,19.15
2023-03-10T05:58:45.940Z,19.60
2023-03-10T06:01:14.704Z,18.67
2023-03-10T06:03:45.290Z,18.00
2023-03-10T06:06:13.008Z,19.13
2023-03-10T06:08:45.877Z,17.25
2023-03-10T06:11:12.820Z,20.67
2023-03-10T06:13:41.929Z,20.98
2023-03-10T06:16:08.641Z,21.08
2023-03-10T06:18:35.727Z,19.77
2023-03-10T06:21:09.157Z,20.67
2023-03-10T06:23:37.371Z,20.15
2023-03-10T06:26:12.521Z,18.90
2023-03-10T06:28:43.872Z,20.42
2023-03-10T06:31:21.076Z,19.02
2023-03-10T06:33:48.652Z,20.70
2023-03-10T06:36:17.239Z,20.55
2023-03-10T06:38:44.517Z,17.60
2023-03-10T06:41:12.437Z,19.20
2023-03-10T06:43:43.201Z,18.92
2023-03-10T06:46:11.799Z,19.60
2023-03-10T06:48:45.109Z,19.77
2023-03-10T06:51:19.684Z,18.10
2023-03-10T06:53:50.368Z,19.08
2023-03-10T06:56:27.114Z,16.55
2023-03-10T06:58:56.777Z,17.67
2023-03-10T07:01:34.383Z,17.90
2023-03-10T07:04:02.475Z,16.73
2023-03-10T07:06:30.194Z,15.25
2023-03-10T07:08:57.325Z,14.27
2023-03-10T07:39:02.670Z,16.38
2023-03-10T07:46:51.412Z,16.77
2023-03-10T07:49:19.957Z,16.65
2023-03-10T08:21:36.472Z,18.40
2023-03-10T08:24:03.505Z,18.60
2023-03-10T08:26:30.404Z,17.48
2023-03-10T09:01:18.050Z,16.00
2023-03-10T09:09:14.122Z,14.07
2023-03-10T09:11:44.391Z,13.30
2023-03-10T09:14:14.588Z,14.75
2023-03-10T09:24:46.798Z,12.70
2023-03-10T09:40:43.252Z,12.15
2023-03-10T09:43:21.076Z,12.25
2023-03-10T09:46:05.339Z,11.25
2023-03-10T09:48:54.765Z,11.63
2023-03-10T09:51:29.670Z,11.18
2023-03-10T09:54:52.784Z,12.10
2023-03-10T09:57:23.692Z,11.20
2023-03-10T10:00:00.563Z,12.70
2023-03-10T10:02:43.940Z,12.25
2023-03-10T10:05:33.955Z,11.77
2023-03-10T10:08:19.182Z,11.65
2023-03-10T10:11:03.722Z,11.07
2023-03-10T10:13:35.297Z,10.13
2023-03-10T10:16:33.644Z,11.40
2023-03-10T10:19:19.906Z,11.32
2023-03-10T10:22:00.655Z,11.73
2023-03-10T10:24:27.785Z,10.85
2023-03-10T10:27:00.782Z,10.52
2023-03-10T10:29:45.186Z,11.15
2023-03-10T10:32:18.126Z,10.95
2023-03-10T10:34:50.048Z,11.50
2023-03-10T10:37:41.643Z,10.95
2023-03-10T10:43:19.330Z,10.70
2023-03-10T10:45:59.502Z,11.82
2023-03-10T10:48:52.254Z,10.75
2023-03-10T10:51:37.833Z,11.20
2023-03-10T10:54:34.830Z,10.43
2023-03-10T10:57:02.392Z,9.40
2023-03-10T10:59:36.050Z,11.40
2023-03-10T11:02:34.461Z,9.40
2023-03-10T11:05:26.385Z,10.95
2023-03-10T11:07:55.576Z,11.15
2023-03-10T11:10:34.538Z,11.45
2023-03-10T11:13:25.199Z,11.02
2023-03-10T11:16:22.146Z,10.35
2023-03-10T11:19:22.721Z,10.82
2023-03-10T11:22:00.048Z,10.40
2023-03-10T11:24:57.465Z,11.75
2023-03-10T11:27:56.222Z,10.50
2023-03-10T11:31:15.227Z,11.20
2023-03-10T11:34:25.782Z,10.43
2023-03-10T11:37:46.839Z,10.93
2023-03-10T11:40:23.487Z,9.95
2023-03-10T11:43:28.434Z,10.88
2023-03-10T11:46:08.728Z,10.40
2023-03-10T11:49:05.429Z,11.25
2023-03-10T11:51:47.980Z,11.57
2023-03-10T11:54:54.462Z,10.55
2023-03-10T11:57:27.850Z,10.77
2023-03-10T12:00:02.416Z,11.57
2023-03-10T12:03:21.764Z,11.52
2023-03-10T12:05:59.521Z,10.45
2023-03-10T12:08:36.702Z,11.55
2023-03-10T12:11:16.726Z,11.07
2023-03-10T12:13:51.691Z,10.63
2023-03-10T12:16:30.089Z,9.80
2023-03-10T12:18:58.184Z,11.45
2023-03-10T12:21:38.474Z,10.52
2023-03-10T12:24:48.197Z,11.50
2023-03-10T12:27:14.815Z,10.23
2023-03-10T12:29:45.413Z,12.10
2023-03-10T12:32:47.106Z,10.80
2023-03-10T12:35:43.246Z,11.13
2023-03-10T12:38:58.491Z,10.77
2023-03-10T12:41:28.135Z,10.75
2023-03-10T12:44:02.621Z,11.35
2023-03-10T12:46:42.142Z,11.38
2023-03-10T12:49:36.421Z,10.80
2023-03-10T12:52:48.777Z,11.35
2023-03-10T12:55:27.979Z,10.43
2023-03-10T12:58:22.169Z,9.35
2023-03-10T13:01:06.539Z,11.02
2023-03-10T13:03:48.178Z,10.95
2023-03-10T13:33:28.263Z,11.50
2023-03-10T13:35:57.838Z,13.20
2023-03-10T13:38:24.813Z,13.68
2023-03-10T13:40:57.772Z,12.10
2023-03-10T13:43:50.598Z,11.40
2023-03-10T13:46:30.979Z,10.35
2023-03-10T13:49:06.598Z,11.05
2023-03-10T13:51:46.657Z,11.10
2023-03-10T13:54:37.034Z,10.35
2023-03-10T13:57:32.834Z,11.02
2023-03-10T14:00:08.882Z,10.40
2023-03-10T14:02:46.649Z,9.57
2023-03-10T14:05:59.831Z,10.07
2023-03-10T14:08:38.701Z,10.57
2023-03-10T14:11:49.459Z,10.40
2023-03-10T14:14:42.426Z,9.98
2023-03-10T14:17:42.733Z,10.50
2023-03-10T14:23:34.797Z,9.38
2023-03-10T14:26:01.569Z,8.98
2023-03-10T14:28:33.446Z,9.75
2023-03-10T14:31:02.675Z,9.38
2023-03-10T14:33:29.639Z,10.32
2023-03-10T14:35:56.532Z,10.13
2023-03-10T14:38:23.695Z,9.43
2023-03-10T14:40:55.568Z,10.05
2023-03-10T14:43:27.465Z,9.57
2023-03-10T14:46:01.431Z,10.63
2023-03-10T14:48:35.198Z,9.63
2023-03-10T14:51:02.229Z,8.90
2023-03-10T14:53:31.046Z,10.95
2023-03-10T14:56:02.560Z,9.55
2023-03-10T14:58:44.720Z,11.13
2023-03-10T15:01:11.559Z,11.05
2023-03-10T15:04:07.070Z,10.40
2023-03-10T15:06:46.735Z,10.75
2023-03-10T15:09:17.057Z,10.55
2023-03-10T15:11:44.005Z,10.57
2023-03-10T15:14:18.452Z,10.25
2023-03-10T15:16:45.782Z,11.40
2023-03-10T15:19:25.921Z,12.13
2023-03-10T15:21:57.733Z,11.40
2023-03-10T15:24:24.517Z,10.02
2023-03-10T15:26:51.448Z,10.93
2023-03-10T15:29:20.036Z,10.25
2023-03-10T15:31:49.201Z,11.90
2023-03-10T15:34:15.873Z,11.27
2023-03-10T15:36:48.876Z,11.40
2023-03-10T15:39:29.121Z,11.73
2023-03-10T15:41:58.215Z,11.00
2023-03-10T15:44:27.909Z,10.52
2023-03-10T15:46:55.766Z,10.68
2023-03-10T15:49:22.827Z,11.50
2023-03-10T15:51:49.785Z,11.23
2023-03-10T15:54:16.600Z,11.80
2023-03-10T15:56:46.526Z,10.60
2023-03-10T15:59:13.500Z,10.93
2023-03-10T16:01:47.291Z,10.48
2023-03-10T16:04:14.162Z,10.75
2023-03-10T16:06:48.846Z,9.30
2023-03-10T16:09:20.753Z,11.63
2023-03-10T16:11:50.217Z,9.90
2023-03-10T16:14:16.897Z,10.52
2023-03-10T16:16:43.669Z,10.15
2023-03-10T16:19:16.143Z,11.07
2023-03-10T16:22:01.265Z,12.25
2023-03-10T16:24:28.005Z,10.45
2023-03-10T16:26:54.753Z,10.55
2023-03-10T16:29:21.660Z,9.90
2023-03-10T16:31:48.493Z,10.93
2023-03-10T16:34:18.623Z,9.50
2023-03-10T16:36:49.773Z,9.02
2023-03-10T16:39:17.856Z,9.48
2023-03-10T16:41:51.132Z,10.30
2023-03-10T16:44:17.773Z,9.25
2023-03-10T16:46:47.194Z,9.05
2023-03-10T16:49:16.479Z,9.43
2023-03-10T16:51:53.813Z,9.88
2023-03-10T16:54:28.544Z,10.25
2023-03-10T16:56:57.100Z,9.93
2023-03-10T16:59:25.266Z,9.88
2023-03-10T17:01:57.016Z,10.70
2023-03-10T17:04:24.565Z,9.90
2023-03-10T17:07:00.443Z,10.55
2023-03-10T17:09:30.487Z,10.60
2023-03-10T17:11:57.184Z,11.27
2023-03-10T17:14:24.178Z,11.30
2023-03-10T17:16:51.402Z,11.10
2023-03-10T17:19:26.972Z,10.93
2023-03-10T17:27:15.277Z,9.70
2023-03-10T17:29:47.954Z,10.02
2023-03-10T17:40:34.794Z,9.00
2023-03-10T18:26:52.487Z,7.55
2023-03-10T19:38:47.130Z,8.23
2023-03-10T19:41:18.333Z,8.35
2023-03-10T19:43:49.208Z,9.32
2023-03-10T19:46:17.042Z,8.70
2023-03-10T19:48:59.436Z,9.27
2023-03-10T19:51:28.927Z,8.63
2023-03-10T19:53:57.854Z,9.45
2023-03-10T19:56:27.765Z,9.68
2023-03-10T19:58:55.041Z,9.10
2023-03-10T20:01:26.688Z,8.98
2023-03-10T20:03:59.272Z,8.27
2023-03-10T20:06:27.286Z,10.20
2023-03-10T20:08:54.886Z,9.35
2023-03-10T20:11:22.374Z,10.30
2023-03-10T20:13:57.655Z,9.23
2023-03-10T20:16:27.670Z,9.73
2023-03-10T20:18:54.481Z,8.13
2023-03-10T20:21:21.709Z,9.27
2023-03-10T20:23:48.627Z,9.23
2023-03-10T20:26:19.273Z,8.40
2023-03-10T20:28:50.203Z,8.88
2023-03-10T20:31:22.574Z,8.88
2023-03-10T20:33:52.279Z,8.27
2023-03-10T20:36:21.965Z,8.65
2023-03-10T20:38:48.866Z,11.90
2023-03-10T20:41:18.691Z,10.52
2023-03-10T20:43:49.357Z,11.23
2023-03-10T20:46:19.461Z,9.82
2023-03-10T20:48:49.870Z,11.02
2023-03-10T20:51:19.209Z,10.00
2023-03-10T20:53:49.212Z,10.10
2023-03-10T20:56:16.743Z,10.10
2023-03-10T20:58:46.901Z,9.73
2023-03-10T21:01:21.564Z,10.30
2023-03-10T21:03:48.643Z,9.80
2023-03-10T21:06:15.390Z,10.48
2023-03-10T21:08:57.955Z,10.00
2023-03-10T21:11:24.796Z,10.90
2023-03-10T21:14:00.936Z,10.02
2023-03-10T21:16:28.179Z,10.35
2023-03-10T21:19:00.650Z,10.05
2023-03-10T21:21:27.364Z,10.40
2023-03-10T21:23:56.728Z,11.15
2023-03-10T21:26:23.569Z,13.25
2023-03-10T21:28:50.654Z,11.57
2023-03-10T21:31:18.546Z,12.40
2023-03-10T21:33:53.099Z,11.20
2023-03-10T21:36:24.435Z,11.68
2023-03-10T21:38:58.111Z,12.00
2023-03-10T21:41:32.788Z,12.02
2023-03-10T21:43:59.803Z,13.23
2023-03-10T21:46:27.650Z,12.20
2023-03-10T21:48:56.051Z,11.40
2023-03-10T21:51:26.380Z,11.43
2023-03-10T21:53:54.501Z,12.02
2023-03-10T21:56:25.842Z,12.65
2023-03-10T21:58:52.664Z,13.48
2023-03-10T22:01:23.573Z,12.13
2023-03-10T22:03:53.627Z,12.05
2023-03-10T22:06:20.724Z,11.68
2023-03-10T22:08:49.352Z,10.60
2023-03-10T22:11:17.008Z,11.77
2023-03-10T22:13:46.401Z,12.48
2023-03-10T22:16:18.060Z,11.27
2023-03-10T22:18:45.760Z,11.77
2023-03-10T22:21:12.849Z,10.50
2023-03-10T22:23:42.137Z,9.73
2023-03-10T22:26:14.994Z,11.05
2023-03-10T22:28:47.540Z,11.90
2023-03-10T22:31:15.735Z,12.43
2023-03-10T22:33:53.725Z,10.70
2023-03-10T22:36:20.351Z,11.10
2023-03-10T22:38:46.994Z,11.93
2023-03-10T22:41:17.241Z,12.38
2023-03-10T22:43:43.992Z,13.25
2023-03-10T22:46:17.050Z,11.90
2023-03-10T22:48:44.298Z,11.77
2023-03-10T22:51:18.456Z,11.82
2023-03-10T22:53:51.130Z,11.77
2023-03-10T22:56:17.984Z,10.80
2023-03-10T22:58:53.803Z,10.75
2023-03-10T23:01:20.570Z,10.38
2023-03-10T23:03:49.695Z,9.35
2023-03-10T23:06:16.860Z,8.27
2023-03-10T23:08:44.476Z,8.35
2023-03-10T23:11:14.975Z,7.97
2023-03-10T23:13:48.236Z,8.38
2023-03-10T23:16:19.648Z,7.88
2023-03-10T23:18:47.381Z,7.03
2023-03-10T23:21:17.149Z,7.43
2023-03-10T23:23:48.113Z,8.15
2023-03-10T23:26:15.210Z,7.88
2023-03-10T23:28:46.074Z,8.38
2023-03-10T23:31:20.139Z,8.73
2023-03-10T23:33:57.068Z,8.55
2023-03-10T23:36:24.295Z,8.15
2023-03-10T23:38:57.098Z,8.05
2023-03-10T23:41:24.050Z,8.10
2023-03-10T23:43:57.982Z,8.48
2023-03-10T23:46:27.181Z,8.77
2023-03-10T23:48:53.920Z,8.18
2023-03-10T23:51:20.771Z,7.95
2023-03-10T23:53:47.547Z,8.80
2023-03-10T23:56:14.280Z,7.95
2023-03-10T23:58:47.658Z,8.07
